Time;durP1;ratioP1;P1;durP2;ratioP2;P2;SDS_P1;SDS_P2;PMS_P1;PMS_P2;Temp;Humidity;BMP_temperature;BMP_pressure;BME280_temperature;BME280_humidity;BME280_pressure;Samples;Min_cycle;Max_cycle;Signal;HPM_P1;HPM_P2
2022/02/13 00:00:11;;;;;;;12.47;5.70;;;;;;;5.00;82.65;101529.16;5127913;27;20365;-77
2022/02/13 00:02:38;;;;;;;11.37;5.40;;;;;;;5.27;82.36;101562.78;5144308;27;20031;-76
2022/02/13 00:05:05;;;;;;;13.97;5.53;;;;;;;5.26;82.13;101582.09;5139453;27;20062;-76
2022/02/13 00:07:31;;;;;;;9.13;5.57;;;;;;;5.20;82.06;101566.63;5131614;27;20042;-75
2022/02/13 00:09:57;;;;;;;11.37;5.97;;;;;;;5.19;81.30;101565.78;5144702;27;20050;-75
2022/02/13 00:12:23;;;;;;;9.77;5.80;;;;;;;5.11;81.60;101554.84;5136893;27;20036;-73
2022/02/13 00:14:49;;;;;;;11.73;5.97;;;;;;;5.18;80.93;101574.59;5129843;27;20062;-77
2022/02/13 00:17:14;;;;;;;15.20;6.55;;;;;;;5.14;80.26;101571.28;5131540;27;20302;-73
2022/02/13 00:19:41;;;;;;;12.30;5.97;;;;;;;5.12;80.10;101569.66;5128687;27;20039;-77
2022/02/13 00:22:06;;;;;;;10.07;4.77;;;;;;;4.99;78.93;101556.34;5133349;27;20111;-77
2022/02/13 00:24:32;;;;;;;9.87;4.30;;;;;;;5.02;78.37;101566.69;5128698;27;20217;-77
2022/02/13 00:26:57;;;;;;;11.23;4.77;;;;;;;5.07;78.55;101562.03;5130279;27;20031;-76
2022/02/13 00:29:23;;;;;;;16.90;4.60;;;;;;;5.09;77.36;101573.31;5128854;27;20065;-76
2022/02/13 00:31:49;;;;;;;11.57;4.53;;;;;;;5.09;77.70;101559.34;5125270;27;20039;-77
2022/02/13 00:34:14;;;;;;;10.47;4.77;;;;;;;5.18;77.73;101579.00;5131823;27;20034;-73
2022/02/13 00:36:40;;;;;;;9.80;4.10;;;;;;;5.00;76.60;101584.31;5126238;27;20034;-73
2022/02/13 00:39:06;;;;;;;6.97;3.27;;;;;;;5.11;75.87;101574.06;5124781;27;20035;-77
2022/02/13 00:41:33;;;;;;;12.73;5.33;;;;;;;5.00;76.52;101586.06;5123833;28;20256;-77
2022/02/13 00:43:58;;;;;;;12.67;5.40;;;;;;;5.03;76.25;101589.38;5128965;27;20309;-73
2022/02/13 00:46:24;;;;;;;15.77;5.37;;;;;;;5.14;76.31;101588.81;5130545;27;20100;-77
2022/02/13 00:48:49;;;;;;;11.93;4.43;;;;;;;5.10;76.73;101582.03;5130528;27;20016;-75
2022/02/13 00:51:15;;;;;;;10.93;4.67;;;;;;;5.08;76.35;101568.97;5130714;27;20334;-75
2022/02/13 00:53:41;;;;;;;10.60;4.03;;;;;;;5.00;76.71;101584.31;5126584;27;20098;-75
2022/02/13 00:56:06;;;;;;;12.70;3.90;;;;;;;5.03;76.82;101576.25;5123669;28;20040;-73
2022/02/13 00:58:32;;;;;;;7.27;4.03;;;;;;;4.89;76.56;101551.69;5124780;27;20027;-73
2022/02/13 01:00:58;;;;;;;9.07;4.43;;;;;;;4.95;76.31;101551.34;5129969;27;20027;-73
2022/02/13 01:03:23;;;;;;;14.60;4.77;;;;;;;4.88;77.08;101563.94;5126009;27;20028;-76
2022/02/13 01:05:49;;;;;;;9.87;4.20;;;;;;;4.90;76.83;101564.72;5123645;28;20075;-76
2022/02/13 01:08:14;;;;;;;11.17;5.03;;;;;;;5.03;76.09;101559.66;5124113;27;20035;-75
2022/02/13 01:10:40;;;;;;;10.63;4.67;;;;;;;5.06;76.05;101551.63;5124641;27;20344;-74
2022/02/13 01:13:05;;;;;;;19.20;4.70;;;;;;;5.09;76.74;101567.22;5122227;28;20144;-73
2022/02/13 01:15:31;;;;;;;13.87;5.03;;;;;;;4.98;76.67;101552.03;5128096;27;20040;-73
2022/02/13 01:17:56;;;;;;;12.30;4.20;;;;;;;5.09;76.33;101573.31;5129530;27;20037;-74
2022/02/13 01:20:22;;;;;;;11.30;4.70;;;;;;;4.90;75.81;101551.59;5125831;27;20035;-76
2022/02/13 01:22:47;;;;;;;13.85;4.55;;;;;;;5.16;75.96;101558.06;5123297;28;20080;-76
2022/02/13 01:25:13;;;;;;;14.00;4.70;;;;;;;5.23;75.42;101563.88;5125145;27;20088;-76
2022/02/13 01:27:38;;;;;;;12.17;4.90;;;;;;;5.25;74.62;101559.38;5130038;27;20284;-77
2022/02/13 01:30:04;;;;;;;8.97;4.57;;;;;;;4.96;75.56;101542.53;5124074;27;20225;-75
2022/02/13 01:32:31;;;;;;;12.63;5.20;;;;;;;5.16;75.50;101547.56;5121532;28;20034;-77
2022/02/13 01:34:56;;;;;;;11.83;4.70;;;;;;;5.29;75.67;101548.63;5128618;27;20351;-73
2022/02/13 01:37:22;;;;;;;13.27;4.77;;;;;;;5.18;74.91;101531.72;5125968;27;20039;-77
2022/02/13 01:39:47;;;;;;;11.20;4.53;;;;;;;5.28;75.10;101549.56;5128183;27;20047;-73
2022/02/13 01:42:14;;;;;;;11.53;4.60;;;;;;;5.37;74.42;101556.09;5128802;27;20090;-75
2022/02/13 01:44:40;;;;;;;10.32;4.85;;;;;;;5.13;74.28;101526.72;5126441;27;20035;-76
2022/02/13 01:47:06;;;;;;;13.40;5.10;;;;;;;5.36;74.73;101543.88;5141020;27;20023;-75
2022/02/13 01:49:32;;;;;;;9.40;4.30;;;;;;;5.51;74.33;101547.44;5143200;27;20203;-74
2022/02/13 01:52:01;;;;;;;9.50;4.20;;;;;;;5.43;73.65;101537.34;5131043;27;20045;-74
2022/02/13 01:54:27;;;;;;;13.13;5.43;;;;;;;5.28;74.72;101525.91;5130652;27;20247;-77
2022/02/13 01:56:53;;;;;;;10.63;4.30;;;;;;;5.23;74.05;101533.19;5124870;27;20039;-75
2022/02/13 01:59:18;;;;;;;9.37;4.60;;;;;;;5.25;74.53;101547.09;5135108;27;20320;-75
2022/02/13 02:01:44;;;;;;;12.07;4.43;;;;;;;4.97;75.00;101515.38;5143153;27;20068;-76
2022/02/13 02:04:09;;;;;;;15.13;5.23;;;;;;;4.93;75.50;101526.97;5136963;27;20046;-77
2022/02/13 02:06:36;;;;;;;11.27;4.97;;;;;;;5.08;74.60;101541.88;5128249;27;20024;-76
2022/02/13 02:09:03;;;;;;;14.43;5.57;;;;;;;4.97;74.18;101546.88;5140152;27;20234;-73
2022/02/13 02:11:28;;;;;;;14.23;4.80;;;;;;;4.71;74.87;101520.22;5142909;27;20031;-76
2022/02/13 02:13:54;;;;;;;13.45;4.63;;;;;;;4.92;74.73;101541.00;5128962;27;20035;-76
2022/02/13 02:16:20;;;;;;;17.33;5.40;;;;;;;5.02;75.33;101548.31;5121452;28;20251;-75
2022/02/13 02:18:45;;;;;;;11.47;4.83;;;;;;;4.96;75.65;101534.66;5125242;27;20023;-77
2022/02/13 02:21:11;;;;;;;15.23;5.20;;;;;;;4.98;74.97;101535.44;5127578;27;20083;-75
2022/02/13 02:23:37;;;;;;;13.23;5.50;;;;;;;4.88;74.19;101519.31;5124747;27;20067;-77
2022/02/13 02:26:03;;;;;;;12.53;4.90;;;;;;;4.86;74.70;101521.19;5132452;27;20146;-76
2022/02/13 02:28:29;;;;;;;13.60;4.80;;;;;;;4.93;74.81;101540.94;5122676;27;20039;-76
2022/02/13 02:30:55;;;;;;;11.13;5.10;;;;;;;4.91;74.85;101539.31;5123805;28;20127;-77
2022/02/13 02:33:20;;;;;;;12.87;4.93;;;;;;;4.94;75.42;101542.63;5122579;27;20023;-74
2022/02/13 02:35:48;;;;;;;12.97;5.07;;;;;;;4.95;75.41;101546.94;5124004;28;20113;-73
2022/02/13 02:38:15;;;;;;;9.63;4.57;;;;;;;4.96;75.19;101537.28;5123426;28;20031;-74
2022/02/13 02:40:41;;;;;;;9.83;4.77;;;;;;;5.02;74.95;101556.19;5122350;28;20321;-75
2022/02/13 02:43:07;;;;;;;16.10;6.60;;;;;;;5.08;74.52;101555.84;5123664;27;20198;-76
2022/02/13 02:45:32;;;;;;;13.37;5.00;;;;;;;4.92;74.41;101548.88;5123683;28;20046;-77
2022/02/13 02:47:58;;;;;;;17.00;5.80;;;;;;;5.00;74.81;101536.19;5123424;28;20035;-77
2022/02/13 02:50:23;;;;;;;11.23;5.03;;;;;;;5.03;74.15;101536.88;5123793;27;20098;-77
2022/02/13 02:52:49;;;;;;;11.83;5.03;;;;;;;5.19;73.76;101557.91;5123580;28;20055;-77
2022/02/13 02:55:15;;;;;;;14.87;4.97;;;;;;;5.16;73.10;101550.19;5123200;28;20070;-74
2022/02/13 02:57:40;;;;;;;10.40;5.17;;;;;;;5.36;72.88;101564.91;5123492;28;20090;-77
2022/02/13 03:00:07;;;;;;;16.87;4.97;;;;;;;5.33;73.17;101567.69;5122086;28;20027;-75
2022/02/13 03:02:34;;;;;;;11.45;5.80;;;;;;;5.36;72.25;101534.22;5123224;28;20023;-75
2022/02/13 03:04:59;;;;;;;16.73;5.93;;;;;;;5.50;72.06;101569.38;5122083;28;20032;-74
2022/02/13 03:07:25;;;;;;;10.88;5.07;;;;;;;5.58;72.52;101567.19;5123364;28;20042;-77
2022/02/13 03:09:50;;;;;;;16.25;5.72;;;;;;;5.80;71.03;101554.53;5121702;28;20040;-74
2022/02/13 03:12:16;;;;;;;14.43;5.90;;;;;;;6.01;69.83;101569.09;5123327;28;20082;-74
2022/02/13 03:14:41;;;;;;;17.43;5.90;;;;;;;6.00;69.63;101564.78;5123289;28;20039;-76
2022/02/13 03:17:07;;;;;;;13.05;6.10;;;;;;;6.15;68.72;101573.56;5123210;27;20033;-77
2022/02/13 03:19:33;;;;;;;12.85;5.43;;;;;;;6.27;68.48;101578.13;5131234;28;20038;-76
2022/02/13 03:21:59;;;;;;;13.45;5.47;;;;;;;6.42;67.97;101581.66;5129384;28;20055;-74
2022/02/13 03:24:25;;;;;;;13.43;5.40;;;;;;;6.49;67.25;101574.22;5127939;28;20206;-76
2022/02/13 03:26:50;;;;;;;12.55;4.88;;;;;;;6.59;66.77;101564.84;5121857;28;20298;-76
2022/02/13 03:29:16;;;;;;;13.77;4.90;;;;;;;6.65;66.95;101569.75;5120743;28;20045;-77
2022/02/13 03:31:42;;;;;;;15.32;5.18;;;;;;;6.48;67.27;101539.19;5124875;28;20031;-74
2022/02/13 03:34:08;;;;;;;10.30;5.22;;;;;;;6.67;67.42;101581.88;5127043;28;20092;-77
2022/02/13 03:36:34;;;;;;;14.73;4.72;;;;;;;6.64;67.36;101563.63;5130954;27;20055;-78
2022/02/13 03:38:59;;;;;;;11.43;5.00;;;;;;;6.86;66.80;101583.41;5146120;27;20034;-74
2022/02/13 03:41:25;;;;;;;11.27;4.80;;;;;;;6.98;65.22;101570.31;5137289;27;20243;-76
2022/02/13 03:43:50;;;;;;;12.57;4.88;;;;;;;7.11;65.21;101580.09;5146559;27;20030;-76
2022/02/13 03:46:16;;;;;;;13.55;5.47;;;;;;;7.27;64.05;101581.69;5140279;27;20229;-74
2022/02/13 03:48:42;;;;;;;18.45;6.75;;;;;;;7.35;64.57;101589.13;5130659;27;20031;-76
2022/02/13 03:51:08;;;;;;;12.90;5.75;;;;;;;7.38;64.10;101582.81;5130080;27;20019;-78
2022/02/13 03:53:33;;;;;;;17.00;6.90;;;;;;;7.47;64.41;101583.09;5133139;27;20019;-80
2022/02/13 03:55:59;;;;;;;12.15;5.82;;;;;;;7.17;65.21;101574.44;5132049;27;20321;-80
2022/02/13 03:58:25;;;;;;;14.50;5.88;;;;;;;7.42;64.95;101581.69;5129772;27;20081;-80
2022/02/13 04:00:50;;;;;;;16.98;5.43;;;;;;;7.52;64.59;101588.91;5125522;28;20313;-78
2022/02/13 04:03:16;;;;;;;10.48;5.28;;;;;;;7.32;64.58;101571.72;5124045;28;20320;-79
2022/02/13 04:05:42;;;;;;;10.90;4.68;;;;;;;7.34;63.90;101555.81;5133482;27;20038;-77
2022/02/13 04:08:08;;;;;;;13.85;5.07;;;;;;;7.62;63.77;101590.03;5127929;27;20325;-79
2022/02/13 04:10:34;;;;;;;8.20;5.05;;;;;;;7.49;64.21;101557.47;5126510;27;20043;-80
2022/02/13 04:13:00;;;;;;;12.35;5.25;;;;;;;7.64;63.08;101587.28;5127272;27;20040;-80
2022/02/13 04:15:26;;;;;;;12.57;5.45;;;;;;;7.81;62.57;101584.41;5130634;27;20335;-79
2022/02/13 04:17:52;;;;;;;12.13;5.90;;;;;;;7.69;62.51;101577.28;5126387;27;20061;-79
2022/02/13 04:20:19;;;;;;;13.93;5.85;;;;;;;7.80;61.74;101587.16;5127650;27;20132;-77
2022/02/13 04:22:45;;;;;;;12.65;5.32;;;;;;;7.66;62.52;101569.59;5128099;27;20016;-79
2022/02/13 04:25:11;;;;;;;18.67;5.97;;;;;;;7.80;61.99;101588.00;5128149;27;20065;-76
2022/02/13 04:27:37;;;;;;;12.65;5.32;;;;;;;7.88;62.23;101590.13;5130824;27;20162;-76
2022/02/13 04:30:05;;;;;;;10.80;4.85;;;;;;;7.75;62.07;101576.06;5129671;27;20027;-78
2022/02/13 04:32:31;;;;;;;10.00;5.13;;;;;;;7.89;61.91;101590.03;5130540;27;20019;-78
2022/02/13 04:34:57;;;;;;;16.77;5.70;;;;;;;7.84;62.05;101588.66;5131176;27;20069;-78
2022/02/13 04:37:23;;;;;;;14.27;5.85;;;;;;;7.87;61.78;101591.94;5126546;27;20042;-79
2022/02/13 04:39:49;;;;;;;22.85;10.13;;;;;;;7.82;62.47;101590.53;5123941;28;20027;-77
2022/02/13 04:42:14;;;;;;;33.38;14.75;;;;;;;7.72;62.10;101566.56;5127119;27;20039;-76
2022/02/13 04:44:41;;;;;;;34.67;16.17;;;;;;;7.83;62.12;101592.22;5131007;27;20040;-79
2022/02/13 04:47:07;;;;;;;22.75;9.90;;;;;;;7.83;62.20;101602.78;5130709;27;20030;-76
2022/02/13 04:49:32;;;;;;;24.35;8.35;;;;;;;7.77;62.46;101592.63;5133139;27;20094;-75
2022/02/13 04:51:58;;;;;;;17.38;7.60;;;;;;;7.82;62.33;101594.00;5133992;27;20341;-75
2022/02/13 04:54:23;;;;;;;13.82;6.78;;;;;;;7.78;62.53;101583.75;5134049;27;20301;-76
2022/02/13 04:56:51;;;;;;;9.48;5.82;;;;;;;7.88;61.79;101593.63;5131842;27;20031;-80
2022/02/13 04:59:17;;;;;;;12.23;5.70;;;;;;;7.77;62.43;101595.25;5134167;27;20088;-80
2022/02/13 05:01:43;;;;;;;13.30;6.15;;;;;;;7.60;62.63;101591.06;5125256;27;20019;-79
2022/02/13 05:04:08;;;;;;;14.27;6.40;;;;;;;7.59;61.78;101568.28;5123846;28;20040;-78
2022/02/13 05:06:35;;;;;;;9.00;5.50;;;;;;;7.56;62.42;101571.97;5124743;27;20019;-78
2022/02/13 05:09:00;;;;;;;12.02;6.90;;;;;;;7.79;61.72;101591.56;5130041;27;20031;-79
2022/02/13 05:11:27;;;;;;;14.45;7.65;;;;;;;7.78;61.62;101575.84;5129150;27;20266;-79
2022/02/13 05:13:53;;;;;;;23.23;10.88;;;;;;;7.75;61.62;101574.25;5129559;27;20106;-73
2022/02/13 05:16:19;;;;;;;28.25;13.80;;;;;;;7.78;61.53;101596.94;5128360;27;20032;-77
2022/02/13 05:18:44;;;;;;;25.35;12.30;;;;;;;7.75;62.37;101583.97;5149549;27;20035;-76
2022/02/13 05:21:10;;;;;;;19.73;10.13;;;;;;;7.46;62.44;101568.22;5130200;27;20779;-76
2022/02/13 05:23:35;;;;;;;15.25;8.20;;;;;;;7.54;62.31;101565.09;5126757;27;20027;-77
2022/02/13 05:26:02;;;;;;;17.20;8.07;;;;;;;7.64;62.22;101590.78;5134948;27;20393;-78
2022/02/13 05:28:28;;;;;;;31.73;15.13;;;;;;;7.67;62.10;101579.19;5131462;27;20106;-78
2022/02/13 05:30:53;;;;;;;38.20;15.68;;;;;;;7.71;62.09;101588.59;5129259;27;20038;-74
2022/02/13 05:33:19;;;;;;;33.28;16.02;;;;;;;7.77;61.34;101588.19;5128244;27;20388;-76
2022/02/13 05:35:44;;;;;;;30.50;15.98;;;;;;;7.70;61.32;101589.53;5122538;27;20065;-75
2022/02/13 05:38:10;;;;;;;22.60;12.00;;;;;;;7.75;61.10;101595.34;5122805;28;20051;-76
2022/02/13 05:40:35;;;;;;;19.60;10.07;;;;;;;7.83;61.33;101600.13;5145512;27;20103;-78
2022/02/13 05:43:01;;;;;;;16.55;8.05;;;;;;;7.80;60.92;101595.06;5124405;27;20027;-77
2022/02/13 05:45:26;;;;;;;15.32;7.50;;;;;;;7.76;61.20;101593.56;5128898;27;20322;-77
2022/02/13 05:47:52;;;;;;;12.57;7.47;;;;;;;7.78;61.94;101600.44;5152709;27;20274;-75
2022/02/13 05:50:18;;;;;;;14.73;6.88;;;;;;;7.69;61.46;101578.13;5143374;27;20030;-78
2022/02/13 05:52:43;;;;;;;14.10;7.63;;;;;;;7.90;61.69;101606.69;5129986;27;20004;-74
2022/02/13 05:55:09;;;;;;;13.93;6.65;;;;;;;7.89;60.82;101602.38;5124453;27;20062;-78
2022/02/13 05:57:39;;;;;;;18.05;7.72;;;;;;;7.84;61.10;101596.56;5120958;28;20046;-75
2022/02/13 06:00:05;;;;;;;17.80;8.05;;;;;;;7.92;60.73;101597.75;5128449;27;20278;-76
2022/02/13 06:02:31;;;;;;;18.15;7.90;;;;;;;7.81;60.98;101584.41;5128931;27;20126;-77
2022/02/13 06:04:57;;;;;;;20.42;9.30;;;;;;;7.89;61.39;101608.50;5126309;27;20321;-75
2022/02/13 06:07:23;;;;;;;25.52;9.63;;;;;;;7.86;61.42;101603.41;5131639;27;20035;-74
2022/02/13 06:09:48;;;;;;;19.65;7.75;;;;;;;7.85;60.73;101603.53;5133100;27;20038;-78
2022/02/13 06:12:14;;;;;;;16.75;8.02;;;;;;;7.93;60.70;101610.00;5126293;27;20221;-79
2022/02/13 06:14:39;;;;;;;19.23;8.80;;;;;;;7.92;60.63;101602.19;5140120;27;20035;-76
2022/02/13 06:17:05;;;;;;;22.27;9.52;;;;;;;7.95;60.34;101602.81;5142900;27;20082;-79
2022/02/13 06:19:30;;;;;;;23.35;10.68;;;;;;;7.98;60.69;101614.97;5127541;27;20027;-79
2022/02/13 06:21:56;;;;;;;32.78;13.85;;;;;;;7.76;60.69;101561.91;5121492;28;20026;-78
2022/02/13 06:24:23;;;;;;;23.98;9.50;;;;;;;8.04;60.40;101617.22;5122189;27;20047;-78
2022/02/13 06:26:48;;;;;;;16.83;8.05;;;;;;;7.93;60.74;101586.25;5125967;27;20060;-77
2022/02/13 06:29:15;;;;;;;17.65;7.70;;;;;;;8.10;60.01;101608.03;5125375;27;20255;-78
2022/02/13 06:31:41;;;;;;;16.20;7.50;;;;;;;8.04;59.94;101609.28;5124814;27;20091;-78
2022/02/13 06:34:06;;;;;;;15.77;7.80;;;;;;;8.13;59.32;101608.69;5146030;27;20027;-77
2022/02/13 06:36:32;;;;;;;20.02;7.53;;;;;;;8.07;59.61;101609.09;5126446;27;20049;-78
2022/02/13 06:38:58;;;;;;;16.02;7.68;;;;;;;8.01;58.82;101591.03;5127147;27;20309;-77
2022/02/13 06:41:23;;;;;;;18.05;8.40;;;;;;;8.19;59.50;101615.34;5125798;27;20321;-77
2022/02/13 06:43:49;;;;;;;18.27;8.55;;;;;;;8.22;59.04;101609.88;5129244;27;20024;-76
2022/02/13 06:46:14;;;;;;;17.70;7.95;;;;;;;8.20;58.80;101622.31;5126129;27;20032;-80
2022/02/13 06:48:40;;;;;;;17.42;8.57;;;;;;;8.26;58.25;101616.63;5123989;27;20034;-76
2022/02/13 06:51:07;;;;;;;18.17;8.52;;;;;;;8.18;58.15;101614.50;5121545;28;20072;-78
2022/02/13 06:53:32;;;;;;;21.23;11.48;;;;;;;8.25;57.29;101596.47;5124308;28;20099;-78
2022/02/13 06:55:58;;;;;;;21.13;9.30;;;;;;;8.19;57.52;101599.53;5124478;27;20047;-78
2022/02/13 06:58:23;;;;;;;20.15;8.07;;;;;;;8.17;57.85;101602.25;5120315;28;20020;-76
2022/02/13 07:00:49;;;;;;;14.40;7.60;;;;;;;8.20;58.92;101604.69;5121093;28;20140;-80
2022/02/13 07:03:14;;;;;;;15.23;7.10;;;;;;;8.10;59.53;101600.13;5131970;28;20039;-76
2022/02/13 07:05:40;;;;;;;12.88;7.15;;;;;;;8.10;58.47;101584.28;5125090;28;20094;-77
2022/02/13 07:08:05;;;;;;;13.57;7.28;;;;;;;8.32;58.28;101601.28;5135803;28;20461;-79
2022/02/13 07:10:31;;;;;;;14.02;7.57;;;;;;;8.30;58.10;101611.06;5143504;27;20079;-79
2022/02/13 07:12:56;;;;;;;15.63;7.55;;;;;;;8.02;58.27;101571.59;5132801;27;20035;-80
2022/02/13 07:15:22;;;;;;;17.17;7.32;;;;;;;8.16;58.14;101608.47;5134168;27;20050;-80
2022/02/13 07:17:47;;;;;;;13.65;6.57;;;;;;;8.04;58.93;101597.88;5136252;27;20080;-78
2022/02/13 07:20:14;;;;;;;13.23;7.10;;;;;;;8.28;58.42;101597.13;5130235;27;20028;-80
2022/02/13 07:22:40;;;;;;;14.50;7.75;;;;;;;8.10;58.63;101598.34;5126869;27;20050;-80
2022/02/13 07:25:08;;;;;;;15.23;7.25;;;;;;;7.65;59.32;101579.28;5128677;27;20228;-78
2022/02/13 07:27:35;;;;;;;14.75;6.50;;;;;;;8.06;58.99;101577.53;5132019;27;20079;-79
2022/02/13 07:30:05;;;;;;;19.63;6.93;;;;;;;8.08;58.53;101587.03;5145574;27;20369;-80
2022/02/13 07:32:32;;;;;;;18.42;8.38;;;;;;;7.92;59.48;101595.09;5139662;27;20023;-78
2022/02/13 07:34:57;;;;;;;20.48;7.13;;;;;;;7.65;59.78;101586.34;5144648;27;20315;-79
2022/02/13 07:37:23;;;;;;;13.32;6.60;;;;;;;7.66;60.34;101580.97;5133485;27;20042;-80
2022/02/13 07:39:50;;;;;;;13.65;6.05;;;;;;;7.63;59.75;101593.50;5129704;27;20316;-76
2022/02/13 07:42:15;;;;;;;12.10;5.88;;;;;;;7.53;60.79;101587.97;5130085;27;20036;-80
2022/02/13 07:44:41;;;;;;;15.98;6.57;;;;;;;7.51;60.46;101573.19;5131210;27;20039;-77
2022/02/13 07:47:07;;;;;;;39.05;9.35;;;;;;;7.63;60.53;101580.31;5130532;27;20108;-78
2022/02/13 07:49:33;;;;;;;16.42;6.97;;;;;;;7.78;60.26;101574.06;5131464;27;20035;-78
2022/02/13 07:51:58;;;;;;;22.48;7.90;;;;;;;7.68;59.92;101571.19;5134526;27;20340;-78
2022/02/13 07:54:25;;;;;;;17.35;8.05;;;;;;;7.89;59.21;101566.28;5129236;27;20349;-80
2022/02/13 07:56:50;;;;;;;20.40;9.10;;;;;;;8.05;59.26;101587.25;5128706;27;20012;-77
2022/02/13 07:59:16;;;;;;;12.75;7.05;;;;;;;8.09;58.40;101582.59;5130013;27;20061;-76
2022/02/13 08:01:41;;;;;;;14.00;6.00;;;;;;;7.94;58.81;101574.75;5131873;27;20027;-80
2022/02/13 08:04:07;;;;;;;14.02;6.20;;;;;;;8.13;58.40;101550.63;5131857;27;20132;-76
2022/02/13 08:06:32;;;;;;;20.60;6.80;;;;;;;8.16;56.95;101558.34;5135775;27;20043;-80
2022/02/13 08:08:58;;;;;;;15.80;6.53;;;;;;;8.34;57.62;101568.69;5132781;27;20072;-78
2022/02/13 08:11:23;;;;;;;13.68;6.20;;;;;;;8.39;56.65;101575.34;5132190;27;20273;-80
2022/02/13 08:13:49;;;;;;;17.00;7.53;;;;;;;8.36;57.20;101572.91;5128057;27;20027;-80
2022/02/13 08:16:15;;;;;;;15.02;6.57;;;;;;;7.64;57.87;101569.69;5128336;27;20329;-79
2022/02/13 08:18:41;;;;;;;15.10;7.53;;;;;;;7.84;58.92;101570.19;5133033;27;20031;-80
2022/02/13 08:21:08;;;;;;;21.63;7.97;;;;;;;7.64;58.75;101561.78;5132643;27;20038;-77
2022/02/13 08:23:34;;;;;;;19.85;8.05;;;;;;;7.57;60.01;101570.19;5130987;27;20130;-76
2022/02/13 08:26:00;;;;;;;19.45;8.23;;;;;;;7.09;60.01;101518.75;5130740;27;20044;-78
2022/02/13 08:28:26;;;;;;;26.38;8.93;;;;;;;7.65;59.51;101560.81;5131163;27;20019;-78
2022/02/13 08:30:52;;;;;;;15.18;6.85;;;;;;;7.76;59.96;101565.41;5133332;27;20059;-80
2022/02/13 08:33:18;;;;;;;19.55;8.10;;;;;;;7.58;59.74;101563.97;5131053;27;20096;-80
2022/02/13 08:35:44;;;;;;;12.80;6.20;;;;;;;7.65;58.88;101554.72;5129398;27;20078;-76
2022/02/13 08:38:09;;;;;;;14.48;6.72;;;;;;;7.91;58.83;101563.56;5125170;27;20027;-80
2022/02/13 08:40:35;;;;;;;15.13;7.00;;;;;;;7.61;58.97;101558.50;5131788;27;20031;-74
2022/02/13 08:43:01;;;;;;;12.75;6.00;;;;;;;7.74;59.04;101563.81;5126352;27;20023;-76
2022/02/13 08:45:31;;;;;;;14.88;5.30;;;;;;;7.56;58.58;101537.69;5127728;27;20023;-76
2022/02/13 08:47:57;;;;;;;16.70;6.93;;;;;;;7.77;58.21;101563.63;5126257;27;20068;-78
2022/02/13 08:50:24;;;;;;;14.13;5.63;;;;;;;7.40;60.31;101565.13;5131132;27;20275;-78
2022/02/13 08:52:50;;;;;;;15.98;5.72;;;;;;;7.33;59.64;101557.63;5130364;27;20060;-78
2022/02/13 08:55:16;;;;;;;12.43;5.45;;;;;;;7.32;60.37;101550.66;5129621;27;20221;-77
2022/02/13 08:57:42;;;;;;;10.82;4.60;;;;;;;7.77;58.24;101546.00;5128087;27;20023;-76
2022/02/13 09:00:09;;;;;;;16.88;6.20;;;;;;;7.88;59.35;101558.47;5130345;27;20027;-78
2022/02/13 09:02:35;;;;;;;15.13;6.00;;;;;;;7.53;60.06;101529.13;5128672;27;20190;-77
2022/02/13 09:05:02;;;;;;;10.80;4.50;;;;;;;7.46;58.88;101536.59;5127846;27;20091;-75
2022/02/13 09:07:27;;;;;;;10.43;4.05;;;;;;;7.10;59.30;101480.94;5128958;27;20143;-74
2022/02/13 09:09:53;;;;;;;11.02;5.07;;;;;;;7.59;59.36;101539.28;5127713;27;20436;-75
2022/02/13 09:12:19;;;;;;;16.40;5.10;;;;;;;7.68;58.58;101539.53;5130277;27;20023;-74
2022/02/13 09:14:48;;;;;;;12.50;4.88;;;;;;;7.36;59.13;101527.59;5128769;27;20035;-75
2022/02/13 09:17:14;;;;;;;15.20;5.07;;;;;;;7.39;59.93;101532.66;5127901;27;20027;-77
2022/02/13 09:19:39;;;;;;;10.40;4.38;;;;;;;7.67;59.81;101532.56;5125440;27;20335;-78
2022/02/13 09:22:05;;;;;;;11.15;4.88;;;;;;;7.59;58.16;101524.31;5127680;27;20035;-77
2022/02/13 09:24:31;;;;;;;12.13;5.30;;;;;;;7.53;59.03;101531.78;5126231;27;20111;-77
2022/02/13 09:26:56;;;;;;;11.05;5.00;;;;;;;7.59;59.23;101526.94;5128204;27;20027;-77
2022/02/13 09:29:22;;;;;;;10.43;4.60;;;;;;;7.60;58.10;101518.09;5127244;27;20035;-73
2022/02/13 09:31:47;;;;;;;14.70;4.97;;;;;;;7.74;58.09;101516.34;5127398;27;20066;-73
2022/02/13 09:34:18;;;;;;;11.77;6.07;;;;;;;7.55;58.14;101509.63;5122143;28;20035;-74
2022/02/13 09:36:45;;;;;;;16.55;5.13;;;;;;;7.76;58.16;101512.66;5126423;27;20349;-76
2022/02/13 09:39:10;;;;;;;9.88;4.07;;;;;;;7.47;57.04;101501.38;5127560;27;20076;-76
2022/02/13 09:41:37;;;;;;;12.38;4.70;;;;;;;7.47;58.14;101513.72;5129508;27;20027;-76
2022/02/13 09:44:03;;;;;;;10.90;4.60;;;;;;;7.41;57.83;101507.06;5132185;27;20080;-75
2022/02/13 09:46:30;;;;;;;11.90;4.53;;;;;;;7.72;56.76;101502.41;5127786;27;20110;-78
2022/02/13 09:48:55;;;;;;;11.40;4.50;;;;;;;7.54;57.80;101478.09;5126523;27;20054;-76
2022/02/13 09:51:21;;;;;;;10.93;4.63;;;;;;;7.99;56.08;101497.94;5127624;27;20057;-77
2022/02/13 09:53:46;;;;;;;14.63;4.55;;;;;;;8.13;54.43;101487.31;5127212;27;20107;-78
2022/02/13 09:56:12;;;;;;;10.23;4.32;;;;;;;7.80;56.40;101498.31;5128755;27;20110;-75
2022/02/13 09:58:38;;;;;;;10.88;4.78;;;;;;;7.56;56.97;101463.88;5128146;27;20035;-74
2022/02/13 10:01:10;;;;;;;9.45;4.35;;;;;;;7.44;57.97;101483.13;5126467;27;20031;-76
2022/02/13 10:03:37;;;;;;;9.07;4.32;;;;;;;7.61;55.25;101471.50;5126260;27;20027;-77
2022/02/13 10:06:12;;;;;;;17.08;3.90;;;;;;;7.66;55.26;101475.50;5147497;27;20019;-78
2022/02/13 10:08:42;;;;;;;10.43;4.25;;;;;;;7.79;55.77;101466.78;5142544;27;20038;-77
2022/02/13 10:11:29;;;;;;;8.95;4.20;;;;;;;7.70;56.72;101460.34;5136556;27;20031;-77
2022/02/13 10:14:10;;;;;;;10.05;4.32;;;;;;;7.63;56.79;101459.06;5129890;27;20027;-79
2022/02/13 10:16:40;;;;;;;9.52;4.63;;;;;;;7.92;55.07;101452.69;5125321;27;20038;-79
2022/02/13 10:19:19;;;;;;;12.43;5.28;;;;;;;7.72;55.81;101442.63;5126502;27;20043;-74
2022/02/13 10:21:49;;;;;;;10.73;5.35;;;;;;;7.72;55.38;101442.63;5127075;27;20073;-77
2022/02/13 10:24:24;;;;;;;12.88;5.10;;;;;;;7.89;55.73;101439.69;5128508;27;20226;-76
2022/02/13 10:27:02;;;;;;;11.55;5.45;;;;;;;7.66;56.22;101414.03;5124041;27;20055;-76
2022/02/13 10:29:32;;;;;;;15.40;5.45;;;;;;;7.78;56.02;101407.94;5135357;27;20224;-78
2022/02/13 10:32:18;;;;;;;13.57;5.10;;;;;;;8.36;54.45;101419.81;5130298;27;20024;-78
2022/02/13 10:35:01;;;;;;;12.80;5.45;;;;;;;8.77;52.57;101423.97;5126422;27;20047;-79
2022/02/13 10:37:41;;;;;;;;;;;;;;;8.81;53.21;101410.44;5137901;27;20095;-80
2022/02/13 10:40:09;;;;;;;9.90;4.60;;;;;;;8.58;53.60;101408.59;5127947;27;19911;-77
2022/02/13 10:42:34;;;;;;;9.48;4.25;;;;;;;8.47;53.70;101392.66;5123876;27;20031;-76
2022/02/13 10:45:26;;;;;;;11.30;4.40;;;;;;;8.96;52.71;101398.75;5123344;27;20054;-80
2022/02/13 10:47:57;;;;;;;16.65;6.55;;;;;;;9.00;52.00;101374.75;5123487;28;20052;-74
2022/02/13 10:50:23;;;;;;;29.67;11.40;;;;;;;9.24;51.12;101389.66;5123664;27;20031;-76
2022/02/13 10:52:51;;;;;;;11.82;5.20;;;;;;;9.38;51.06;101386.03;5122253;28;20352;-75
2022/02/13 10:55:17;;;;;;;8.35;3.97;;;;;;;8.64;52.22;101387.03;5123597;28;20033;-78
2022/02/13 10:57:43;;;;;;;7.95;3.60;;;;;;;8.55;53.29;101388.53;5123426;28;20024;-76
2022/02/13 11:00:15;;;;;;;8.55;4.40;;;;;;;8.59;53.04;101375.97;5135428;27;20207;-80
2022/02/13 11:02:44;;;;;;;10.35;4.30;;;;;;;8.35;53.58;101377.69;5143087;27;20236;-80
2022/02/13 11:05:10;;;;;;;13.90;4.63;;;;;;;8.72;52.76;101368.84;5143324;27;20035;-78
2022/02/13 11:07:41;;;;;;;13.57;4.75;;;;;;;8.91;51.95;101363.91;5142867;27;20325;-76
2022/02/13 11:10:17;;;;;;;8.75;4.20;;;;;;;9.14;51.64;101358.72;5143229;27;20240;-75
2022/02/13 11:12:44;;;;;;;10.30;4.00;;;;;;;9.45;50.43;101366.09;5143060;27;20314;-74
2022/02/13 11:15:20;;;;;;;8.68;4.22;;;;;;;9.52;50.50;101362.03;5143221;27;20110;-77
2022/02/13 11:17:48;;;;;;;8.73;4.35;;;;;;;9.35;50.51;101337.78;5141772;28;20424;-76
2022/02/13 11:20:16;;;;;;;14.35;4.28;;;;;;;9.59;49.38;101331.53;5141758;27;20031;-75
2022/02/13 11:22:43;;;;;;;12.93;4.35;;;;;;;9.83;49.08;101343.81;5142796;28;20053;-77